Time;durP1;ratioP1;P1;durP2;ratioP2;P2;SDS_P1;SDS_P2;PMS_P1;PMS_P2;Temp;Humidity;BMP_temperature;BMP_pressure;BME280_temperature;BME280_humidity;BME280_pressure;Samples;Min_cycle;Max_cycle;Signal;HPM_P1;HPM_P2
2022/07/02 00:02:12;;;;;;;1.90;1.80;;;;;;;;;;4956860;28;20178;-83
2022/07/02 00:04:41;;;;;;;1.50;1.40;;;;;;;;;;4963573;28;20179;-83
2022/07/02 00:07:07;;;;;;;1.57;1.40;;;;;;;;;;4962401;28;20205;-83
2022/07/02 00:09:32;;;;;;;1.30;1.20;;;;;;;;;;4968098;28;20177;-83
2022/07/02 00:11:58;;;;;;;1.77;1.67;;;;;;;;;;4963564;28;20232;-83
2022/07/02 00:14:25;;;;;;;1.80;1.70;;;;;;;;;;4962640;28;20204;-83
2022/07/02 00:16:51;;;;;;;1.93;1.40;;;;;;;;;;4978189;28;20184;-83
2022/07/02 00:19:16;;;;;;;2.40;1.40;;;;;;;;;;4966834;28;20188;-83
2022/07/02 00:21:41;;;;;;;1.60;1.50;;;;;;;;;;4982720;28;20226;-84
2022/07/02 00:24:26;;;;;;;1.60;1.50;;;;;;;;;;5041323;28;20706;-82
2022/07/02 00:26:57;;;;;;;1.90;1.60;;;;;;;;;;5041713;28;20197;-82
2022/07/02 00:29:43;;;;;;;2.60;1.50;;;;;;;;;;5043082;28;20277;-81
2022/07/02 00:32:08;;;;;;;1.70;1.60;;;;;;;;;;5037541;28;20189;-82
2022/07/02 00:34:35;;;;;;;1.77;1.67;;;;;;;;;;5034534;28;20180;-82
2022/07/02 00:37:01;;;;;;;3.53;1.50;;;;;;;;;;5037735;28;20199;-82
2022/07/02 00:39:26;;;;;;;2.37;1.60;;;;;;;;;;5033265;28;20248;-82
2022/07/02 00:41:55;;;;;;;1.70;1.60;;;;;;;;;;5028257;28;20210;-82
2022/07/02 00:44:22;;;;;;;1.50;1.40;;;;;;;;;;5036133;28;20182;-82
2022/07/02 00:46:49;;;;;;;6.30;1.40;;;;;;;;;;5031723;28;21547;-82
2022/07/02 00:49:15;;;;;;;1.67;1.33;;;;;;;;;;5033599;28;20189;-81
2022/07/02 00:51:40;;;;;;;2.27;1.47;;;;;;;;;;5039203;28;20237;-82
2022/07/02 00:54:05;;;;;;;1.40;1.30;;;;;;;;;;5036457;28;20187;-82
2022/07/02 00:56:31;;;;;;;1.20;1.20;;;;;;;;;;5031833;28;20325;-81
2022/07/02 00:58:57;;;;;;;1.27;1.20;;;;;;;;;;5041764;28;20273;-82
2022/07/02 01:01:22;;;;;;;1.10;1.10;;;;;;;;;;5037930;28;20207;-81
2022/07/02 01:03:48;;;;;;;1.40;1.30;;;;;;;;;;5041593;28;20201;-82
2022/07/02 01:06:14;;;;;;;1.13;1.13;;;;;;;;;;5040331;28;20225;-81
2022/07/02 01:11:25;;;;;;;2.10;1.30;;;;;;;;;;5030715;28;20191;-82
2022/07/02 01:13:51;;;;;;;1.40;1.30;;;;;;;;;;5049154;28;20206;-82
2022/07/02 01:16:16;;;;;;;1.20;1.17;;;;;;;;;;5031866;28;20254;-82
2022/07/02 01:18:41;;;;;;;1.27;1.20;;;;;;;;;;5033181;28;20207;-82
2022/07/02 01:21:06;;;;;;;1.57;1.47;;;;;;;;;;5032765;28;20185;-81
2022/07/02 01:23:32;;;;;;;1.90;1.30;;;;;;;;;;5036126;28;20226;-82
2022/07/02 01:25:57;;;;;;;1.20;1.20;;;;;;;;;;5031487;28;20243;-82
2022/07/02 01:28:22;;;;;;;3.67;1.20;;;;;;;;;;5037029;28;20185;-82
2022/07/02 01:30:48;;;;;;;2.03;1.40;;;;;;;;;;5034480;28;20212;-81
2022/07/02 01:33:13;;;;;;;1.60;1.50;;;;;;;;;;5032613;28;20218;-78
2022/07/02 01:35:38;;;;;;;1.67;1.57;;;;;;;;;;5015633;28;20217;-81
2022/07/02 01:38:04;;;;;;;1.53;1.40;;;;;;;;;;5027421;28;20258;-82
2022/07/02 01:40:29;;;;;;;1.67;1.37;;;;;;;;;;5019699;28;20186;-82
2022/07/02 01:42:54;;;;;;;1.10;1.10;;;;;;;;;;5025022;28;20245;-82
2022/07/02 01:45:20;;;;;;;2.37;1.40;;;;;;;;;;5037934;28;20181;-82
2022/07/02 01:47:45;;;;;;;3.53;1.37;;;;;;;;;;5021064;28;20225;-82
2022/07/02 01:50:10;;;;;;;1.70;1.30;;;;;;;;;;5018282;28;20180;-82
2022/07/02 01:52:35;;;;;;;1.83;1.30;;;;;;;;;;5021737;28;20186;-82
2022/07/02 01:55:01;;;;;;;2.40;2.27;;;;;;;;;;5026738;28;20180;-81
2022/07/02 01:57:29;;;;;;;1.73;1.63;;;;;;;;;;5023170;28;20215;-81
2022/07/02 01:59:55;;;;;;;1.30;1.20;;;;;;;;;;5021054;28;20183;-82
2022/07/02 02:02:20;;;;;;;1.03;1.00;;;;;;;;;;5024084;28;20213;-82
2022/07/02 02:04:45;;;;;;;1.30;1.20;;;;;;;;;;5016917;28;20190;-81
2022/07/02 02:07:10;;;;;;;3.00;1.40;;;;;;;;;;5017258;28;20180;-82
2022/07/02 02:09:36;;;;;;;1.33;1.27;;;;;;;;;;5028885;28;20333;-81
2022/07/02 02:12:01;;;;;;;2.57;1.40;;;;;;;;;;5025810;28;20174;-81
2022/07/02 02:14:26;;;;;;;1.10;1.10;;;;;;;;;;5025780;28;20240;-82
2022/07/02 02:16:51;;;;;;;2.03;1.23;;;;;;;;;;5022359;28;20241;-81
2022/07/02 02:19:17;;;;;;;2.77;1.30;;;;;;;;;;5020373;28;20179;-82
2022/07/02 02:21:42;;;;;;;1.47;1.37;;;;;;;;;;5022949;28;20193;-82
2022/07/02 02:24:08;;;;;;;1.37;1.27;;;;;;;;;;5019435;28;20235;-82
2022/07/02 02:26:33;;;;;;;1.87;1.10;;;;;;;;;;5020031;28;20390;-81
2022/07/02 02:28:58;;;;;;;2.43;1.40;;;;;;;;;;5023439;28;20272;-82
2022/07/02 02:31:23;;;;;;;1.43;1.33;;;;;;;;;;5023328;28;20187;-81
2022/07/02 02:33:49;;;;;;;1.73;1.30;;;;;;;;;;5027864;28;20175;-82
2022/07/02 02:36:14;;;;;;;1.50;1.40;;;;;;;;;;5027162;28;20186;-81
2022/07/02 02:38:40;;;;;;;1.57;1.47;;;;;;;;;;5018711;28;20264;-81
2022/07/02 02:41:06;;;;;;;1.70;1.60;;;;;;;;;;5020037;28;20175;-81
2022/07/02 02:43:32;;;;;;;1.83;1.73;;;;;;;;;;5024600;28;20199;-81
2022/07/02 02:45:58;;;;;;;6.13;2.00;;;;;;;;;;5035359;28;20216;-82
2022/07/02 02:48:25;;;;;;;1.50;1.40;;;;;;;;;;5024766;28;20186;-82
2022/07/02 02:50:51;;;;;;;1.90;1.80;;;;;;;;;;5021948;28;20182;-84
2022/07/02 02:53:16;;;;;;;1.47;1.37;;;;;;;;;;5020975;28;20321;-82
2022/07/02 02:55:41;;;;;;;2.00;1.90;;;;;;;;;;5021735;28;20277;-81
2022/07/02 02:58:06;;;;;;;1.90;1.80;;;;;;;;;;5016998;28;20225;-81
2022/07/02 03:00:32;;;;;;;2.10;1.90;;;;;;;;;;5018197;28;20265;-81
2022/07/02 03:02:57;;;;;;;2.03;1.93;;;;;;;;;;5026983;28;20258;-81
2022/07/02 03:05:22;;;;;;;3.10;1.93;;;;;;;;;;5020478;28;20309;-81
2022/07/02 03:07:47;;;;;;;1.90;1.80;;;;;;;;;;5021624;28;20185;-81
2022/07/02 03:10:13;;;;;;;2.60;1.80;;;;;;;;;;5025203;28;20217;-81
2022/07/02 03:12:38;;;;;;;5.27;2.97;;;;;;;;;;5022750;28;20189;-81
2022/07/02 03:15:04;;;;;;;3.20;1.80;;;;;;;;;;5022842;28;20185;-81
2022/07/02 03:17:32;;;;;;;2.80;1.90;;;;;;;;;;5017561;28;20205;-81
2022/07/02 03:19:57;;;;;;;2.53;1.80;;;;;;;;;;5018993;28;20182;-84
2022/07/02 03:22:22;;;;;;;4.57;2.20;;;;;;;;;;5021636;28;20245;-83
2022/07/02 03:24:48;;;;;;;3.73;2.07;;;;;;;;;;5028845;28;20216;-83
2022/07/02 03:27:13;;;;;;;2.70;2.50;;;;;;;;;;5020549;28;20201;-84
2022/07/02 03:29:38;;;;;;;1.87;1.77;;;;;;;;;;5021234;28;20181;-84
2022/07/02 03:32:04;;;;;;;2.43;2.03;;;;;;;;;;5020488;28;20181;-83
2022/07/02 03:34:29;;;;;;;7.37;2.07;;;;;;;;;;5018956;28;20304;-84
2022/07/02 03:36:54;;;;;;;7.10;2.93;;;;;;;;;;5019723;28;20207;-84
2022/07/02 03:39:19;;;;;;;2.20;2.10;;;;;;;;;;5013390;28;20183;-84
2022/07/02 03:41:45;;;;;;;5.97;1.87;;;;;;;;;;5018141;28;20281;-84
2022/07/02 03:44:10;;;;;;;2.60;1.80;;;;;;;;;;5026243;28;20203;-84
2022/07/02 03:46:35;;;;;;;4.13;2.10;;;;;;;;;;5022225;28;20186;-83
2022/07/02 03:49:00;;;;;;;2.60;2.10;;;;;;;;;;5014991;28;20192;-83
2022/07/02 03:51:26;;;;;;;2.73;2.50;;;;;;;;;;5022351;28;20182;-84
2022/07/02 03:53:51;;;;;;;2.63;2.43;;;;;;;;;;5027388;28;20192;-84
2022/07/02 03:56:16;;;;;;;3.00;2.70;;;;;;;;;;5019063;28;20274;-83
2022/07/02 03:58:41;;;;;;;2.80;2.60;;;;;;;;;;5022926;28;20193;-84
2022/07/02 04:01:07;;;;;;;5.83;2.90;;;;;;;;;;5021180;28;20206;-84
2022/07/02 04:03:33;;;;;;;3.10;2.80;;;;;;;;;;5024723;28;20212;-84
2022/07/02 04:05:58;;;;;;;3.43;3.13;;;;;;;;;;5016764;28;20229;-84
2022/07/02 04:08:23;;;;;;;2.97;2.67;;;;;;;;;;5021077;28;20213;-84
2022/07/02 04:10:49;;;;;;;3.67;2.80;;;;;;;;;;5019637;28;20183;-83
2022/07/02 04:13:14;;;;;;;3.40;3.00;;;;;;;;;;5023878;28;20188;-84
2022/07/02 04:15:39;;;;;;;3.07;2.53;;;;;;;;;;5018582;28;20187;-84
2022/07/02 04:18:04;;;;;;;3.70;2.90;;;;;;;;;;5017784;28;20189;-84
2022/07/02 04:20:30;;;;;;;3.00;2.80;;;;;;;;;;5019154;28;20185;-83
2022/07/02 04:22:55;;;;;;;2.90;2.70;;;;;;;;;;5025004;28;20257;-83
2022/07/02 04:25:20;;;;;;;3.40;3.10;;;;;;;;;;5018591;28;20208;-83
2022/07/02 04:27:45;;;;;;;2.80;2.50;;;;;;;;;;5024157;28;20185;-83
2022/07/02 04:30:11;;;;;;;2.20;2.07;;;;;;;;;;5021033;28;20181;-83
2022/07/02 04:32:36;;;;;;;2.80;2.60;;;;;;;;;;5027034;28;20190;-83
2022/07/02 04:35:02;;;;;;;2.90;2.70;;;;;;;;;;5023226;28;20190;-81
2022/07/02 04:37:27;;;;;;;2.57;2.37;;;;;;;;;;5021119;28;20209;-81
2022/07/02 04:39:52;;;;;;;3.10;2.50;;;;;;;;;;5018156;28;20276;-81
2022/07/02 04:42:18;;;;;;;3.53;3.23;;;;;;;;;;5015587;28;20183;-81
2022/07/02 04:44:43;;;;;;;11.43;10.43;;;;;;;;;;5025887;28;20240;-81
2022/07/02 04:47:08;;;;;;;8.10;7.40;;;;;;;;;;5022343;28;20244;-81
2022/07/02 04:49:33;;;;;;;4.23;3.93;;;;;;;;;;5025186;28;20193;-81
2022/07/02 04:51:59;;;;;;;5.40;4.83;;;;;;;;;;5020887;28;20182;-81
2022/07/02 04:54:25;;;;;;;4.50;4.07;;;;;;;;;;5020623;28;20190;-81
2022/07/02 04:56:50;;;;;;;4.93;3.23;;;;;;;;;;5022961;28;20185;-81
2022/07/02 04:59:16;;;;;;;3.00;2.80;;;;;;;;;;5014080;28;20211;-81
2022/07/02 05:01:41;;;;;;;3.20;3.00;;;;;;;;;;5024774;28;20183;-81
2022/07/02 05:04:06;;;;;;;2.67;2.47;;;;;;;;;;5018972;28;20221;-80
2022/07/02 05:06:31;;;;;;;10.00;3.27;;;;;;;;;;5020711;28;20218;-81
2022/07/02 05:08:56;;;;;;;3.67;2.90;;;;;;;;;;5018572;28;20199;-81
2022/07/02 05:11:22;;;;;;;3.53;3.23;;;;;;;;;;5019780;28;20186;-80
2022/07/02 05:13:47;;;;;;;3.27;2.87;;;;;;;;;;5018046;28;20191;-80
2022/07/02 05:16:13;;;;;;;3.17;2.83;;;;;;;;;;5020920;28;20256;-80
2022/07/02 05:18:39;;;;;;;2.63;2.43;;;;;;;;;;5026081;28;20270;-81
2022/07/02 05:21:04;;;;;;;2.80;2.60;;;;;;;;;;5025260;28;20306;-81
2022/07/02 05:23:30;;;;;;;2.97;2.67;;;;;;;;;;5023298;28;20313;-80
2022/07/02 05:25:55;;;;;;;3.00;2.80;;;;;;;;;;5018064;28;20171;-80
2022/07/02 05:28:20;;;;;;;3.40;2.57;;;;;;;;;;5018621;28;20184;-80
2022/07/02 05:30:46;;;;;;;2.70;2.50;;;;;;;;;;5024412;28;20195;-80
2022/07/02 05:33:11;;;;;;;2.43;2.23;;;;;;;;;;5026116;28;20188;-80
2022/07/02 05:35:36;;;;;;;2.83;2.53;;;;;;;;;;5026328;28;20237;-80
2022/07/02 05:38:01;;;;;;;2.47;2.27;;;;;;;;;;5029311;28;20239;-80
2022/07/02 05:40:27;;;;;;;2.13;1.93;;;;;;;;;;5022623;28;20192;-80
2022/07/02 05:42:52;;;;;;;2.40;2.23;;;;;;;;;;5023797;28;20201;-79
2022/07/02 05:45:17;;;;;;;2.47;2.00;;;;;;;;;;5018259;28;20265;-80
2022/07/02 05:47:42;;;;;;;2.47;2.27;;;;;;;;;;5026727;28;20206;-80
2022/07/02 05:50:08;;;;;;;3.00;2.10;;;;;;;;;;5019497;28;20189;-80
2022/07/02 05:52:34;;;;;;;2.27;2.10;;;;;;;;;;5023726;28;20211;-80
2022/07/02 05:54:59;;;;;;;3.00;1.90;;;;;;;;;;5015046;28;20175;-80
2022/07/02 05:57:24;;;;;;;1.90;1.80;;;;;;;;;;5019683;28;20182;-80
2022/07/02 05:59:49;;;;;;;2.13;1.83;;;;;;;;;;5024564;28;20187;-80
2022/07/02 06:02:15;;;;;;;1.70;1.60;;;;;;;;;;5022581;28;20189;-80
2022/07/02 06:04:40;;;;;;;3.93;1.73;;;;;;;;;;5020508;28;20172;-80
2022/07/02 06:09:49;;;;;;;2.40;1.20;;;;;;;;;;5029729;28;20192;-80
2022/07/02 06:12:14;;;;;;;2.00;1.43;;;;;;;;;;5026756;28;20177;-79
2022/07/02 06:14:39;;;;;;;1.50;1.40;;;;;;;;;;5029038;28;20180;-79
2022/07/02 06:17:05;;;;;;;1.50;1.40;;;;;;;;;;5025771;28;20176;-79
2022/07/02 06:19:30;;;;;;;1.67;1.30;;;;;;;;;;5023220;28;20207;-79
2022/07/02 06:21:55;;;;;;;1.23;1.20;;;;;;;;;;5020384;28;20181;-80
2022/07/02 06:24:20;;;;;;;1.30;1.20;;;;;;;;;;5025876;28;20497;-80
2022/07/02 06:26:45;;;;;;;1.50;1.40;;;;;;;;;;5016199;28;20186;-80
2022/07/02 06:29:11;;;;;;;1.30;1.20;;;;;;;;;;5018482;28;20182;-80
2022/07/02 06:31:37;;;;;;;1.23;1.13;;;;;;;;;;5023358;28;20183;-80
2022/07/02 06:34:02;;;;;;;1.40;1.30;;;;;;;;;;5014660;28;20180;-80
2022/07/02 06:36:28;;;;;;;1.10;1.10;;;;;;;;;;5023780;28;20292;-79
2022/07/02 06:38:53;;;;;;;2.20;1.20;;;;;;;;;;5016512;28;20346;-80
2022/07/02 06:44:03;;;;;;;1.63;1.37;;;;;;;;;;5015803;28;20300;-80
2022/07/02 06:46:28;;;;;;;2.17;1.40;;;;;;;;;;5020771;28;20204;-81
2022/07/02 06:48:54;;;;;;;1.67;1.40;;;;;;;;;;5017208;28;20220;-79
2022/07/02 06:51:20;;;;;;;1.50;1.20;;;;;;;;;;5022136;28;20182;-80
2022/07/02 06:53:48;;;;;;;1.30;1.20;;;;;;;;;;5018195;28;20193;-80
2022/07/02 06:56:13;;;;;;;1.30;1.20;;;;;;;;;;5019540;28;20185;-80
2022/07/02 06:58:38;;;;;;;1.57;1.40;;;;;;;;;;5029525;28;20174;-80
2022/07/02 07:01:04;;;;;;;1.20;1.10;;;;;;;;;;5027175;28;20189;-81
2022/07/02 07:03:29;;;;;;;1.30;1.10;;;;;;;;;;5021806;28;20310;-80
2022/07/02 07:05:54;;;;;;;1.23;1.13;;;;;;;;;;5024950;28;20211;-79
2022/07/02 07:08:19;;;;;;;1.33;1.23;;;;;;;;;;5020958;28;20181;-83
2022/07/02 07:10:45;;;;;;;1.30;1.20;;;;;;;;;;5022853;28;20179;-85
2022/07/02 07:13:10;;;;;;;1.10;1.10;;;;;;;;;;5015105;28;20193;-85
2022/07/02 07:15:35;;;;;;;1.30;1.20;;;;;;;;;;5028321;28;20182;-85
2022/07/02 07:18:01;;;;;;;1.33;1.23;;;;;;;;;;5025199;28;20183;-86
2022/07/02 07:20:29;;;;;;;1.30;1.20;;;;;;;;;;5018172;28;20198;-86
2022/07/02 07:22:58;;;;;;;1.40;1.30;;;;;;;;;;5027449;28;20321;-85
2022/07/02 07:25:23;;;;;;;1.27;1.17;;;;;;;;;;5017167;28;20214;-87
2022/07/02 07:27:48;;;;;;;0.90;0.90;;;;;;;;;;5020531;28;20181;-86
2022/07/02 07:30:14;;;;;;;1.50;1.40;;;;;;;;;;5026076;28;20247;-87
2022/07/02 07:32:39;;;;;;;1.10;1.10;;;;;;;;;;5024714;28;20179;-86
2022/07/02 07:35:05;;;;;;;1.40;1.30;;;;;;;;;;5024691;28;20173;-86
2022/07/02 07:37:30;;;;;;;1.43;1.20;;;;;;;;;;5024568;28;20198;-86
2022/07/02 07:39:55;;;;;;;1.30;1.13;;;;;;;;;;5027095;28;20185;-86
2022/07/02 07:42:22;;;;;;;1.20;1.10;;;;;;;;;;5025821;28;20265;-85
2022/07/02 07:44:48;;;;;;;1.30;1.20;;;;;;;;;;5025530;28;20209;-86
2022/07/02 07:47:13;;;;;;;1.37;1.23;;;;;;;;;;5027888;28;20386;-86
2022/07/02 07:49:38;;;;;;;1.57;1.13;;;;;;;;;;5022346;28;20188;-86
2022/07/02 07:52:04;;;;;;;1.47;1.20;;;;;;;;;;5030849;28;20269;-87
2022/07/02 07:54:29;;;;;;;1.50;1.40;;;;;;;;;;5029030;28;20176;-87
2022/07/02 07:56:55;;;;;;;1.63;1.53;;;;;;;;;;5027950;28;20246;-87
2022/07/02 07:59:20;;;;;;;1.00;1.00;;;;;;;;;;5022852;28;20181;-85
2022/07/02 08:01:45;;;;;;;1.40;1.30;;;;;;;;;;5019718;28;20224;-88
2022/07/02 08:04:10;;;;;;;1.17;1.07;;;;;;;;;;5018264;28;20233;-86
2022/07/02 08:06:36;;;;;;;3.73;1.67;;;;;;;;;;5025645;28;20181;-87
2022/07/02 08:09:01;;;;;;;1.80;1.30;;;;;;;;;;5024001;28;20174;-85
2022/07/02 08:11:27;;;;;;;1.17;1.07;;;;;;;;;;5023365;28;20174;-86
2022/07/02 08:13:52;;;;;;;1.40;1.30;;;;;;;;;;5023666;28;20172;-86
2022/07/02 08:16:17;;;;;;;1.07;1.07;;;;;;;;;;5021705;28;20193;-86
2022/07/02 08:18:42;;;;;;;1.10;1.03;;;;;;;;;;5019232;28;20185;-86
2022/07/02 08:21:07;;;;;;;1.70;1.30;;;;;;;;;;5017423;28;20182;-87
2022/07/02 08:23:33;;;;;;;1.33;1.23;;;;;;;;;;5023414;28;20241;-86
2022/07/02 08:25:58;;;;;;;1.30;1.20;;;;;;;;;;5017825;28;20186;-86
2022/07/02 08:28:24;;;;;;;1.27;1.10;;;;;;;;;;5024829;28;20240;-86
2022/07/02 08:30:49;;;;;;;2.07;1.20;;;;;;;;;;5020131;28;20172;-86
2022/07/02 08:33:16;;;;;;;1.20;1.10;;;;;;;;;;5020087;28;20189;-86
2022/07/02 08:35:41;;;;;;;2.13;1.70;;;;;;;;;;5012512;28;20184;-85
2022/07/02 08:38:06;;;;;;;2.07;1.70;;;;;;;;;;5020502;28;20226;-86
2022/07/02 08:40:32;;;;;;;1.73;1.20;;;;;;;;;;5018358;28;20210;-86
2022/07/02 08:43:00;;;;;;;0.90;0.90;;;;;;;;;;5023329;28;20209;-86
2022/07/02 08:45:28;;;;;;;1.43;1.33;;;;;;;;;;5025637;28;20255;-86
2022/07/02 08:47:54;;;;;;;2.40;1.10;;;;;;;;;;5022523;28;20250;-85
2022/07/02 08:50:22;;;;;;;1.00;1.00;;;;;;;;;;5031059;28;20181;-87
2022/07/02 08:52:48;;;;;;;1.87;1.50;;;;;;;;;;5022194;28;20186;-85
2022/07/02 08:55:16;;;;;;;2.40;1.13;;;;;;;;;;5026693;28;20223;-86
2022/07/02 08:57:43;;;;;;;1.77;0.90;;;;;;;;;;5032391;28;20185;-85
2022/07/02 09:00:08;;;;;;;1.30;1.20;;;;;;;;;;5029794;28;20184;-85
2022/07/02 09:02:34;;;;;;;3.47;1.67;;;;;;;;;;5024083;28;20209;-86
2022/07/02 09:05:01;;;;;;;3.30;1.50;;;;;;;;;;5026896;28;20175;-86
2022/07/02 09:07:27;;;;;;;1.53;1.30;;;;;;;;;;5024132;28;20185;-86
2022/07/02 09:09:52;;;;;;;1.03;1.03;;;;;;;;;;5024384;28;20177;-87
2022/07/02 09:12:18;;;;;;;1.33;1.23;;;;;;;;;;5017735;28;20399;-86
2022/07/02 09:14:44;;;;;;;1.43;1.30;;;;;;;;;;5023027;28;20179;-86
2022/07/02 09:17:10;;;;;;;3.10;1.50;;;;;;;;;;5027920;28;20252;-86
2022/07/02 09:19:36;;;;;;;1.00;1.00;;;;;;;;;;5027377;28;20204;-86
2022/07/02 09:22:01;;;;;;;1.27;1.17;;;;;;;;;;5025883;28;20220;-85
2022/07/02 09:24:28;;;;;;;1.43;1.13;;;;;;;;;;5027632;28;20240;-86
2022/07/02 09:27:04;;;;;;;2.03;1.00;;;;;;;;;;5038681;28;20189;-86
2022/07/02 09:29:39;;;;;;;1.40;1.10;;;;;;;;;;5030435;28;20182;-86
2022/07/02 09:32:05;;;;;;;1.10;1.00;;;;;;;;;;5022966;28;20242;-85
2022/07/02 09:34:30;;;;;;;1.40;1.30;;;;;;;;;;5020736;28;20289;-86
2022/07/02 09:36:55;;;;;;;1.00;1.00;;;;;;;;;;5021992;28;20288;-86
2022/07/02 09:39:27;;;;;;;2.13;1.30;;;;;;;;;;5019359;28;20188;-86
2022/07/02 09:41:52;;;;;;;1.77;1.00;;;;;;;;;;5018650;28;20180;-86
2022/07/02 09:44:18;;;;;;;1.20;1.10;;;;;;;;;;5017317;28;20207;-87
2022/07/02 09:46:43;;;;;;;2.33;1.00;;;;;;;;;;5024996;28;20269;-87
2022/07/02 09:49:08;;;;;;;1.23;1.17;;;;;;;;;;5026058;28;20272;-86
2022/07/02 09:51:45;;;;;;;0.97;0.97;;;;;;;;;;5024110;28;20171;-86
2022/07/02 09:54:16;;;;;;;2.10;1.00;;;;;;;;;;5021757;28;20186;-87
2022/07/02 09:56:49;;;;;;;1.00;1.00;;;;;;;;;;5030551;28;20178;-86
2022/07/02 09:59:14;;;;;;;1.00;1.00;;;;;;;;;;5025681;28;20522;-86
2022/07/02 10:01:42;;;;;;;0.93;0.93;;;;;;;;;;5024016;28;20481;-83
2022/07/02 10:04:08;;;;;;;2.43;1.30;;;;;;;;;;5026667;28;20199;-85
2022/07/02 10:06:33;;;;;;;1.20;1.00;;;;;;;;;;5028370;28;20231;-86
2022/07/02 10:08:59;;;;;;;1.60;1.00;;;;;;;;;;5021675;28;20171;-86
2022/07/02 10:11:24;;;;;;;1.30;1.20;;;;;;;;;;5020693;28;20182;-86
2022/07/02 10:13:50;;;;;;;1.30;1.20;;;;;;;;;;5025501;28;20173;-84
2022/07/02 10:16:17;;;;;;;3.03;1.10;;;;;;;;;;5016670;28;20178;-80
2022/07/02 10:18:43;;;;;;;1.13;1.07;;;;;;;;;;5015908;28;20204;-79
2022/07/02 10:21:12;;;;;;;1.37;1.23;;;;;;;;;;5022183;28;20180;-80
2022/07/02 10:23:38;;;;;;;0.80;0.70;;;;;;;;;;5019421;28;20233;-79
2022/07/02 10:26:03;;;;;;;1.17;1.00;;;;;;;;;;5019941;28;20186;-79
2022/07/02 10:28:28;;;;;;;1.97;1.10;;;;;;;;;;5020650;28;20173;-80
2022/07/02 10:30:54;;;;;;;1.27;1.10;;;;;;;;;;5017168;28;20190;-79
2022/07/02 10:33:20;;;;;;;1.00;1.00;;;;;;;;;;5018203;28;20266;-80
2022/07/02 10:35:46;;;;;;;1.20;1.10;;;;;;;;;;5025729;28;20188;-80
2022/07/02 10:38:13;;;;;;;1.20;1.10;;;;;;;;;;5018273;28;20265;-80
2022/07/02 10:40:46;;;;;;;1.27;0.80;;;;;;;;;;5025952;28;20185;-79
2022/07/02 10:43:16;;;;;;;3.33;1.40;;;;;;;;;;5017570;28;20225;-79
2022/07/02 10:45:41;;;;;;;1.00;1.00;;;;;;;;;;5023845;28;20199;-79
2022/07/02 10:48:08;;;;;;;1.67;1.30;;;;;;;;;;5020145;28;20209;-80
2022/07/02 10:50:34;;;;;;;1.03;1.00;;;;;;;;;;5020502;28;20184;-79
2022/07/02 10:53:05;;;;;;;1.27;1.17;;;;;;;;;;5022686;28;20180;-80
2022/07/02 10:55:30;;;;;;;0.90;0.87;;;;;;;;;;5020958;28;20182;-80
2022/07/02 10:58:00;;;;;;;1.33;1.10;;;;;;;;;;5020484;28;20197;-80
2022/07/02 11:00:26;;;;;;;1.40;0.83;;;;;;;;;;5027306;28;20189;-80
2022/07/02 11:02:52;;;;;;;1.20;1.10;;;;;;;;;;5029843;28;20206;-80
2022/07/02 11:05:17;;;;;;;1.00;0.80;;;;;;;;;;5023940;28;20171;-80
2022/07/02 11:07:43;;;;;;;2.30;1.27;;;;;;;;;;5017716;28;20179;-80
2022/07/02 11:10:09;;;;;;;0.83;0.80;;;;;;;;;;5023513;28;20182;-80
2022/07/02 11:12:57;;;;;;;1.17;1.13;;;;;;;;;;5025708;28;20182;-77
2022/07/02 11:15:27;;;;;;;1.23;1.07;;;;;;;;;;5025555;28;20183;-80
2022/07/02 11:17:54;;;;;;;1.98;1.30;;;;;;;;;;5022712;28;20240;-80
2022/07/02 11:20:27;;;;;;;1.08;1.08;;;;;;;;;;5043948;28;20188;-80
2022/07/02 11:22:53;;;;;;;2.50;1.20;;;;;;;;;;5021761;28;20233;-80
2022/07/02 11:25:19;;;;;;;1.52;1.40;;;;;;;;;;5039654;28;20202;-80
2022/07/02 11:27:58;;;;;;;1.50;1.17;;;;;;;;;;5017530;28;20230;-80
2022/07/02 11:32:50;;;;;;;1.88;1.60;;;;;;;;;;4988878;28;20216;-80
2022/07/02 11:35:16;;;;;;;0.90;0.90;;;;;;;;;;4990213;28;20226;-80
2022/07/02 11:37:45;;;;;;;1.02;1.00;;;;;;;;;;4987563;28;20251;-80
2022/07/02 11:40:20;;;;;;;1.85;1.10;;;;;;;;;;4991957;28;20179;-80
2022/07/02 11:42:46;;;;;;;1.50;0.93;;;;;;;;;;4990790;28;20220;-80
2022/07/02 11:45:11;;;;;;;1.17;1.08;;;;;;;;;;4989877;28;20230;-80
2022/07/02 11:47:47;;;;;;;1.20;1.10;;;;;;;;;;4988734;28;20208;-80
2022/07/02 11:50:12;;;;;;;0.90;0.90;;;;;;;;;;4988382;28;20188;-80
2022/07/02 11:52:40;;;;;;;1.00;0.90;;;;;;;;;;4990281;28;20244;-80
2022/07/02 11:55:06;;;;;;;1.05;0.90;;;;;;;;;;4990411;28;20176;-80
2022/07/02 11:57:31;;;;;;;0.98;0.98;;;;;;;;;;4988270;28;20204;-80
2022/07/02 11:59:57;;;;;;;0.80;0.80;;;;;;;;;;4993258;28;20179;-80
2022/07/02 12:02:22;;;;;;;1.10;1.00;;;;;;;;;;4987363;28;20184;-80
2022/07/02 12:04:48;;;;;;;1.00;1.00;;;;;;;;;;4983093;28;20172;-80
2022/07/02 12:07:13;;;;;;;1.27;1.17;;;;;;;;;;4987968;28;20195;-80
2022/07/02 12:09:39;;;;;;;1.10;1.00;;;;;;;;;;4986035;28;20188;-80
2022/07/02 12:12:04;;;;;;;1.15;1.10;;;;;;;;;;4988461;28;20180;-80
2022/07/02 12:14:29;;;;;;;0.80;0.80;;;;;;;;;;4988334;28;20378;-80
2022/07/02 12:16:55;;;;;;;0.98;0.98;;;;;;;;;;4988937;28;20191;-80
2022/07/02 12:19:27;;;;;;;1.23;1.13;;;;;;;;;;4988746;28;20171;-80
2022/07/02 12:21:52;;;;;;;2.03;1.00;;;;;;;;;;4989598;28;20188;-81
2022/07/02 12:24:20;;;;;;;1.70;1.60;;;;;;;;;;4990852;28;20187;-80
2022/07/02 12:26:49;;;;;;;1.05;0.98;;;;;;;;;;4991095;28;20184;-80
2022/07/02 12:32:06;;;;;;;1.65;1.00;;;;;;;;;;4988621;28;20366;-81
2022/07/02 12:34:39;;;;;;;1.15;0.82;;;;;;;;;;4992704;28;20211;-81
2022/07/02 12:37:04;;;;;;;1.45;1.10;;;;;;;;;;4986440;28;20278;-80
2022/07/02 12:39:38;;;;;;;1.20;1.00;;;;;;;;;;4995274;28;20230;-80
2022/07/02 12:42:20;;;;;;;1.10;1.05;;;;;;;;;;4987763;28;20210;-81
2022/07/02 12:44:55;;;;;;;1.20;1.10;;;;;;;;;;4989059;28;20184;-81
2022/07/02 12:47:41;;;;;;;1.10;1.00;;;;;;;;;;4987213;28;20183;-80
2022/07/02 12:50:09;;;;;;;1.15;1.05;;;;;;;;;;4985053;28;20218;-80
2022/07/02 12:52:48;;;;;;;1.00;0.98;;;;;;;;;;4989397;28;20237;-81
2022/07/02 12:55:27;;;;;;;0.85;0.85;;;;;;;;;;4986544;28;20250;-81
2022/07/02 12:57:53;;;;;;;1.00;1.00;;;;;;;;;;4984952;28;20176;-81
2022/07/02 13:00:18;;;;;;;1.45;1.00;;;;;;;;;;4989005;28;20187;-81
2022/07/02 13:02:43;;;;;;;1.30;1.20;;;;;;;;;;4985685;28;20188;-80
2022/07/02 13:05:09;;;;;;;1.33;0.93;;;;;;;;;;4989191;28;20180;-81
2022/07/02 13:07:34;;;;;;;3.83;1.98;;;;;;;;;;4983080;28;20189;-81
2022/07/02 13:09:59;;;;;;;1.42;1.10;;;;;;;;;;4989158;28;20184;-82
2022/07/02 13:12:24;;;;;;;1.27;1.15;;;;;;;;;;4988897;28;20180;-81
2022/07/02 13:14:49;;;;;;;0.98;0.98;;;;;;;;;;4990745;28;20184;-81
2022/07/02 13:17:15;;;;;;;0.82;0.82;;;;;;;;;;4986416;28;20184;-81
2022/07/02 13:19:42;;;;;;;1.77;0.95;;;;;;;;;;4996653;28;20188;-81
2022/07/02 13:22:08;;;;;;;1.95;1.10;;;;;;;;;;4989480;28;20180;-81
2022/07/02 13:24:33;;;;;;;1.20;1.10;;;;;;;;;;4987372;28;20322;-80
2022/07/02 13:26:59;;;;;;;1.00;1.00;;;;;;;;;;4987562;28;20248;-81
2022/07/02 13:29:24;;;;;;;0.85;0.85;;;;;;;;;;4987851;28;20207;-81
2022/07/02 13:31:49;;;;;;;1.10;0.93;;;;;;;;;;4989266;28;20228;-82
2022/07/02 13:34:18;;;;;;;1.13;1.10;;;;;;;;;;4993789;28;20219;-81
2022/07/02 13:36:43;;;;;;;1.30;1.10;;;;;;;;;;4989343;28;20208;-81
2022/07/02 13:39:08;;;;;;;1.95;1.08;;;;;;;;;;4992325;28;20192;-81
2022/07/02 13:41:33;;;;;;;3.40;1.05;;;;;;;;;;5011192;28;20172;-81
2022/07/02 13:43:58;;;;;;;1.48;0.80;;;;;;;;;;4990685;28;20187;-82
2022/07/02 13:46:24;;;;;;;1.10;1.00;;;;;;;;;;5005085;28;20186;-81
2022/07/02 13:48:49;;;;;;;1.67;0.98;;;;;;;;;;4992103;28;20198;-81
2022/07/02 13:51:14;;;;;;;1.73;1.10;;;;;;;;;;4991606;28;20278;-82
2022/07/02 13:53:39;;;;;;;0.98;0.98;;;;;;;;;;4994626;28;20208;-81
2022/07/02 13:56:05;;;;;;;1.10;1.00;;;;;;;;;;4991132;28;20184;-82
2022/07/02 13:58:30;;;;;;;0.85;0.85;;;;;;;;;;4993883;28;20178;-82
2022/07/02 14:00:55;;;;;;;1.70;1.13;;;;;;;;;;4995652;28;20176;-82
2022/07/02 14:03:20;;;;;;;2.50;1.10;;;;;;;;;;4992220;28;20240;-80
2022/07/02 14:05:46;;;;;;;1.00;1.00;;;;;;;;;;4989023;28;20188;-82
2022/07/02 14:08:11;;;;;;;2.30;1.17;;;;;;;;;;4991707;28;20188;-81
2022/07/02 14:10:37;;;;;;;0.80;0.80;;;;;;;;;;4998053;28;20177;-82
2022/07/02 14:13:03;;;;;;;1.30;1.05;;;;;;;;;;4983384;28;20207;-81
2022/07/02 14:15:29;;;;;;;1.15;1.10;;;;;;;;;;4985999;28;20180;-82
2022/07/02 14:17:54;;;;;;;1.58;0.80;;;;;;;;;;4989534;28;20180;-82
2022/07/02 14:20:19;;;;;;;1.00;1.00;;;;;;;;;;4988697;28;20191;-82
2022/07/02 14:22:45;;;;;;;1.92;1.15;;;;;;;;;;4992715;28;20180;-82
2022/07/02 14:25:10;;;;;;;4.35;1.20;;;;;;;;;;4990788;28;20188;-81
2022/07/02 14:27:35;;;;;;;1.45;1.30;;;;;;;;;;4988278;28;20177;-81
2022/07/02 14:30:01;;;;;;;0.85;0.85;;;;;;;;;;4990589;28;20177;-82
2022/07/02 14:32:27;;;;;;;0.98;0.98;;;;;;;;;;4991022;28;20232;-91
2022/07/02 14:34:52;;;;;;;2.17;0.80;;;;;;;;;;4974329;28;20241;-82
2022/07/02 14:37:17;;;;;;;1.38;1.15;;;;;;;;;;4989430;28;20231;-81
2022/07/02 14:39:43;;;;;;;2.10;1.00;;;;;;;;;;4990486;28;20180;-81
2022/07/02 14:42:08;;;;;;;0.93;0.93;;;;;;;;;;4991290;28;20172;-82
2022/07/02 14:44:34;;;;;;;2.83;1.10;;;;;;;;;;4987922;28;20246;-81
2022/07/02 14:46:59;;;;;;;1.10;1.10;;;;;;;;;;4992659;28;20184;-81
2022/07/02 14:49:25;;;;;;;1.08;1.02;;;;;;;;;;4990378;28;21312;-81
2022/07/02 14:51:50;;;;;;;1.67;1.10;;;;;;;;;;4990551;28;20191;-82